Time;durP1;ratioP1;P1;durP2;ratioP2;P2;SDS_P1;SDS_P2;PMS_P1;PMS_P2;Temp;Humidity;BMP_temperature;BMP_pressure;BME280_temperature;BME280_humidity;BME280_pressure;Samples;Min_cycle;Max_cycle;Signal;HPM_P1;HPM_P2
2022/03/14 00:00:16;;;;;;;37.00;21.88;;;;;;;6.89;62.89;93132.66;2097755;28;20052;-81
2022/03/14 00:01:17;;;;;;;30.67;20.42;;;;;;;7.05;62.96;93140.91;2098734;28;20078;-81
2022/03/14 00:02:18;;;;;;;36.85;21.55;;;;;;;6.89;63.60;93138.75;2106544;28;20028;-81
2022/03/14 00:03:20;;;;;;;32.90;21.05;;;;;;;6.86;63.74;93133.47;2098203;28;20024;-80
2022/03/14 00:04:21;;;;;;;34.90;22.67;;;;;;;6.81;64.48;93130.09;2098205;28;20231;-81
2022/03/14 00:05:31;;;;;;;35.45;22.27;;;;;;;6.70;64.72;93131.28;2098118;28;20448;-81
2022/03/14 00:06:32;;;;;;;;;;;;;;;6.50;66.55;93131.81;2100005;28;20036;-81
2022/03/14 00:07:36;;;;;;;31.05;19.58;;;;;;;6.45;66.89;93139.41;2089908;28;19932;-80
2022/03/14 00:08:40;;;;;;;31.70;20.88;;;;;;;6.44;67.75;93148.53;2090270;28;20097;-81
2022/03/14 00:09:41;;;;;;;36.92;22.08;;;;;;;6.69;66.65;93153.69;2082432;28;20029;-81
2022/03/14 00:10:45;;;;;;;33.50;21.13;;;;;;;6.79;68.72;93150.19;2081742;28;20521;-81
2022/03/14 00:11:46;;;;;;;33.17;21.20;;;;;;;6.97;69.15;93156.13;2098364;28;20045;-80
2022/03/14 00:12:55;;;;;;;34.40;21.63;;;;;;;7.03;69.74;93167.13;2097568;28;20039;-80
2022/03/14 00:14:04;;;;;;;37.38;22.52;;;;;;;6.95;71.54;93169.06;2091255;28;20033;-81
2022/03/14 00:15:11;;;;;;;28.35;21.27;;;;;;;7.21;71.13;93174.97;2098134;28;20035;-81
2022/03/14 00:16:24;;;;;;;33.40;22.55;;;;;;;6.97;72.08;93169.44;2091312;28;20044;-81
2022/03/14 00:17:25;;;;;;;33.45;22.23;;;;;;;6.92;73.60;93180.47;2098019;28;20029;-81
2022/03/14 00:18:27;;;;;;;30.77;21.27;;;;;;;6.96;73.71;93191.09;2098082;28;20027;-81
2022/03/14 00:19:31;;;;;;;29.85;21.25;;;;;;;6.77;74.69;93189.69;2098322;28;20029;-81
2022/03/14 00:20:32;;;;;;;32.70;21.92;;;;;;;6.57;76.80;93190.19;2098448;28;20663;-80
2022/03/14 00:21:41;;;;;;;32.75;21.92;;;;;;;6.47;76.96;93198.97;2106234;28;20039;-81
2022/03/14 00:22:43;;;;;;;28.88;21.23;;;;;;;6.50;78.57;93200.84;2098107;28;20043;-81
2022/03/14 00:23:44;;;;;;;30.67;20.08;;;;;;;6.60;79.54;93195.88;2098140;28;20461;-80
2022/03/14 00:24:45;;;;;;;28.50;19.70;;;;;;;6.49;80.46;93203.88;2097597;28;20032;-81
2022/03/14 00:25:47;;;;;;;28.02;20.27;;;;;;;6.41;81.72;93211.13;2089832;28;20437;-80
2022/03/14 00:26:48;;;;;;;26.95;19.27;;;;;;;6.38;82.00;93211.91;2081808;28;20029;-80
2022/03/14 00:27:49;;;;;;;27.80;20.45;;;;;;;6.32;83.43;93224.03;2081453;28;20085;-81
2022/03/14 00:28:50;;;;;;;25.42;18.88;;;;;;;6.32;83.08;93229.34;2097982;28;20444;-81
2022/03/14 00:29:52;;;;;;;24.40;18.10;;;;;;;6.64;83.43;93236.44;2098046;28;20020;-80
2022/03/14 00:30:52;;;;;;;25.40;18.40;;;;;;;6.52;84.49;93238.38;2081587;28;20029;-81
2022/03/14 00:31:53;;;;;;;21.25;15.63;;;;;;;6.56;85.91;93239.13;2081415;28;20025;-80
2022/03/14 00:32:54;;;;;;;15.93;12.43;;;;;;;6.59;87.22;93240.25;2089789;28;20115;-80
2022/03/14 00:33:55;;;;;;;18.25;13.48;;;;;;;6.93;84.71;93240.44;2089641;28;20027;-80
2022/03/14 00:34:58;;;;;;;13.68;10.82;;;;;;;6.64;85.77;93250.47;2089588;28;20025;-80
2022/03/14 00:35:59;;;;;;;16.90;12.25;;;;;;;6.53;88.55;93250.50;2097625;28;20043;-81
2022/03/14 00:37:00;;;;;;;17.73;12.13;;;;;;;6.44;88.68;93247.53;2097868;28;20032;-82
2022/03/14 00:38:01;;;;;;;17.63;12.73;;;;;;;6.61;88.66;93259.22;2097987;28;20031;-80
2022/03/14 00:39:02;;;;;;;16.63;13.20;;;;;;;6.55;87.93;93258.88;2097941;28;20426;-80
2022/03/14 00:40:07;;;;;;;16.08;12.25;;;;;;;6.52;89.44;93258.88;2114594;28;20184;-81
2022/03/14 00:41:08;;;;;;;8.20;6.85;;;;;;;6.61;88.50;93269.09;2106277;28;20050;-81
2022/03/14 00:42:09;;;;;;;5.35;3.92;;;;;;;6.50;88.92;93280.50;2089896;28;20058;-80
2022/03/14 00:43:10;;;;;;;4.65;3.25;;;;;;;6.28;90.21;93276.41;2089747;28;20119;-80
2022/03/14 00:44:15;;;;;;;4.03;3.20;;;;;;;6.20;92.16;93275.66;2089577;28;20104;-80
2022/03/14 00:45:16;;;;;;;4.65;2.60;;;;;;;6.24;92.39;93265.06;2090403;28;20086;-80
2022/03/14 00:46:17;;;;;;;4.05;2.50;;;;;;;6.21;92.31;93281.75;2089563;28;20127;-80
2022/03/14 00:47:19;;;;;;;4.15;2.83;;;;;;;5.94;93.74;93279.53;2089516;28;20028;-80
2022/03/14 00:48:19;;;;;;;3.60;2.20;;;;;;;5.97;94.51;93285.94;2081076;28;20367;-81
2022/03/14 00:49:21;;;;;;;2.88;2.40;;;;;;;5.84;94.40;93282.91;2097366;28;20067;-81
2022/03/14 00:50:22;;;;;;;3.55;1.85;;;;;;;5.80;96.29;93284.81;2106025;28;20388;-80
2022/03/14 00:51:22;;;;;;;1.55;1.45;;;;;;;5.66;95.88;93292.75;2080734;28;20037;-81
2022/03/14 00:52:23;;;;;;;1.52;1.40;;;;;;;5.57;96.73;93290.50;2088944;28;20427;-81
2022/03/14 00:53:24;;;;;;;1.63;1.30;;;;;;;5.50;96.62;93293.16;2097774;28;20016;-80
2022/03/14 00:54:26;;;;;;;1.60;1.25;;;;;;;5.56;98.47;93278.38;2089481;28;20028;-80
2022/03/14 00:55:28;;;;;;;1.25;1.15;;;;;;;5.68;98.42;93285.19;2085745;28;20025;-80
2022/03/14 00:56:29;;;;;;;1.25;1.15;;;;;;;5.68;97.73;93293.91;2089959;28;20028;-80
2022/03/14 00:57:30;;;;;;;1.13;1.00;;;;;;;5.76;97.91;93284.06;2106048;28;20520;-81
2022/03/14 00:58:33;;;;;;;0.90;0.90;;;;;;;5.57;97.48;93290.50;2107041;28;20023;-80
2022/03/14 00:59:34;;;;;;;0.80;0.77;;;;;;;5.51;99.39;93281.41;2106272;28;20473;-81
2022/03/14 01:00:35;;;;;;;0.70;0.70;;;;;;;5.62;99.27;93295.44;2105871;28;20385;-81
2022/03/14 01:01:36;;;;;;;0.77;0.77;;;;;;;5.59;98.82;93284.81;2097679;28;20028;-80
2022/03/14 01:02:37;;;;;;;0.70;0.70;;;;;;;5.61;99.15;93279.88;2095361;28;20389;-79
2022/03/14 01:03:38;;;;;;;0.68;0.68;;;;;;;5.66;98.51;93279.50;2114532;28;20022;-80
2022/03/14 01:04:39;;;;;;;2.17;0.88;;;;;;;5.53;98.19;93284.44;2105985;28;20016;-80
2022/03/14 01:05:40;;;;;;;0.80;0.80;;;;;;;5.42;100.00;93297.69;2097659;28;20103;-80
2022/03/14 01:06:41;;;;;;;0.70;0.70;;;;;;;5.42;100.00;93310.19;2097642;28;20051;-80
2022/03/14 01:07:42;;;;;;;0.68;0.65;;;;;;;5.43;100.00;93311.72;2097594;28;20524;-80
2022/03/14 01:08:43;;;;;;;0.73;0.60;;;;;;;5.43;100.00;93312.47;2089485;28;20020;-80
2022/03/14 01:09:44;;;;;;;0.50;0.50;;;;;;;5.31;100.00;93320.78;2087989;28;20021;-80
2022/03/14 01:10:47;;;;;;;0.60;0.50;;;;;;;5.38;100.00;93307.53;2089421;28;20021;-80
2022/03/14 01:11:48;;;;;;;0.57;0.55;;;;;;;5.42;100.00;93316.25;2097512;28;20122;-80
2022/03/14 01:12:50;;;;;;;0.50;0.50;;;;;;;5.21;100.00;93309.03;2109000;28;20031;-80
2022/03/14 01:13:51;;;;;;;0.32;0.32;;;;;;;5.22;100.00;93313.22;2097456;28;20021;-80
2022/03/14 01:14:51;;;;;;;0.50;0.50;;;;;;;5.22;100.00;93321.16;2089313;28;20016;-80
2022/03/14 01:15:54;;;;;;;0.57;0.57;;;;;;;5.20;100.00;93310.16;2089253;28;20025;-80
2022/03/14 01:16:55;;;;;;;0.50;0.50;;;;;;;5.10;100.00;93313.56;2093729;28;20033;-81
2022/03/14 01:17:56;;;;;;;0.50;0.50;;;;;;;5.24;100.00;93316.22;2097469;28;20066;-81
2022/03/14 01:18:57;;;;;;;0.55;0.55;;;;;;;5.29;100.00;93320.41;2089380;28;20052;-81
2022/03/14 01:19:58;;;;;;;0.50;0.43;;;;;;;5.14;100.00;93308.28;2097575;28;20035;-81
2022/03/14 01:20:59;;;;;;;0.50;0.50;;;;;;;5.18;100.00;93307.16;2105856;28;20050;-81
2022/03/14 01:22:00;;;;;;;0.50;0.40;;;;;;;5.00;100.00;93307.13;2105738;28;20016;-80
2022/03/14 01:23:01;;;;;;;0.40;0.40;;;;;;;4.85;100.00;93310.09;2097604;28;20040;-79
2022/03/14 01:24:02;;;;;;;0.50;0.50;;;;;;;4.92;100.00;93316.16;2088787;28;20031;-80
2022/03/14 01:25:04;;;;;;;0.40;0.40;;;;;;;4.85;100.00;93312.75;2082393;28;20024;-80
2022/03/14 01:26:06;;;;;;;1.92;0.40;;;;;;;4.96;100.00;93310.84;2089443;28;20032;-81
2022/03/14 01:27:07;;;;;;;0.60;0.50;;;;;;;4.96;100.00;93318.81;2089760;28;20413;-80
2022/03/14 01:28:08;;;;;;;2.80;0.47;;;;;;;5.01;100.00;93321.13;2097281;28;20025;-80
2022/03/14 01:29:10;;;;;;;0.55;0.50;;;;;;;5.08;100.00;93313.16;2089235;28;20032;-80
2022/03/14 01:30:11;;;;;;;1.15;0.40;;;;;;;5.08;100.00;93312.41;2085816;28;20493;-80
2022/03/14 01:31:12;;;;;;;0.47;0.43;;;;;;;5.04;100.00;93315.81;2097635;28;20078;-80
2022/03/14 01:32:13;;;;;;;0.68;0.50;;;;;;;5.09;100.00;93312.03;2097417;28;20067;-80
2022/03/14 01:33:14;;;;;;;0.80;0.40;;;;;;;5.13;100.00;93317.34;2089235;28;20025;-80
2022/03/14 01:34:15;;;;;;;0.22;0.22;;;;;;;5.11;100.00;93309.78;2089396;28;20093;-80
2022/03/14 01:35:19;;;;;;;0.38;0.38;;;;;;;5.18;100.00;93317.75;2089285;28;20466;-79
2022/03/14 01:36:39;;;;;;;0.40;0.40;;;;;;;5.14;100.00;93311.69;2089334;28;20029;-80
2022/03/14 01:37:40;;;;;;;0.30;0.30;;;;;;;5.10;100.00;93316.22;2099836;28;20024;-80
2022/03/14 01:38:41;;;;;;;0.30;0.30;;;;;;;4.94;100.00;93327.13;2097542;28;20115;-79
2022/03/14 01:39:42;;;;;;;0.43;0.43;;;;;;;4.81;100.00;93331.25;2089150;28;20021;-80
2022/03/14 01:40:43;;;;;;;0.55;0.30;;;;;;;4.81;100.00;93320.66;2096166;28;20024;-80
2022/03/14 01:41:44;;;;;;;0.40;0.40;;;;;;;4.79;100.00;93330.88;2097266;28;20416;-80
2022/03/14 01:42:46;;;;;;;0.32;0.32;;;;;;;4.84;100.00;93319.94;2089275;28;20031;-80
2022/03/14 01:43:48;;;;;;;0.38;0.38;;;;;;;4.79;100.00;93333.53;2089331;28;20107;-80
2022/03/14 01:44:49;;;;;;;0.40;0.40;;;;;;;4.77;100.00;93339.19;2089639;28;20032;-80
2022/03/14 01:45:54;;;;;;;0.30;0.30;;;;;;;4.84;100.00;93343.75;2089137;28;20017;-80
2022/03/14 01:46:55;;;;;;;0.35;0.32;;;;;;;4.79;100.00;93338.84;2081745;28;20025;-80
2022/03/14 01:47:56;;;;;;;0.50;0.50;;;;;;;4.75;100.00;93346.00;2080437;28;20463;-80
2022/03/14 01:48:57;;;;;;;0.30;0.30;;;;;;;4.74;100.00;93347.91;2089161;28;20450;-81
2022/03/14 01:49:58;;;;;;;0.30;0.30;;;;;;;5.00;100.00;93364.59;2089119;28;20017;-81
2022/03/14 01:51:00;;;;;;;0.77;0.35;;;;;;;4.87;100.00;93352.84;2089338;28;20096;-80
2022/03/14 01:52:05;;;;;;;0.32;0.32;;;;;;;5.18;100.00;93360.16;2097267;28;20028;-80
2022/03/14 01:53:06;;;;;;;0.20;0.20;;;;;;;4.92;100.00;93360.44;2097970;28;20477;-81
2022/03/14 01:54:09;;;;;;;0.32;0.32;;;;;;;4.93;100.00;93372.56;2105661;28;20058;-80
2022/03/14 01:55:11;;;;;;;0.70;0.45;;;;;;;5.01;100.00;93371.44;2105761;28;20054;-80
2022/03/14 01:56:13;;;;;;;0.68;0.50;;;;;;;4.83;100.00;93378.53;2105568;28;20442;-80
2022/03/14 01:57:22;;;;;;;0.30;0.30;;;;;;;4.78;100.00;93371.72;2097283;28;20020;-80
2022/03/14 01:58:23;;;;;;;0.30;0.30;;;;;;;4.80;100.00;93372.88;2091192;28;20362;-80
2022/03/14 01:59:24;;;;;;;0.30;0.30;;;;;;;4.72;100.00;93373.22;2097269;28;20042;-80
2022/03/14 02:00:25;;;;;;;0.30;0.30;;;;;;;4.67;100.00;93378.88;2101495;28;20019;-80
2022/03/14 02:01:26;;;;;;;0.30;0.30;;;;;;;4.72;100.00;93383.81;2097433;28;20025;-80
2022/03/14 02:02:27;;;;;;;0.55;0.32;;;;;;;4.75;100.00;93389.13;2097203;28;20056;-80
2022/03/14 02:03:29;;;;;;;0.32;0.20;;;;;;;4.95;100.00;93394.09;2097023;28;20024;-80
2022/03/14 02:04:29;;;;;;;0.38;0.30;;;;;;;4.77;100.00;93401.97;2089039;28;20021;-80
2022/03/14 02:05:33;;;;;;;0.30;0.30;;;;;;;4.86;100.00;93399.75;2089026;28;20025;-80
2022/03/14 02:06:35;;;;;;;0.20;0.20;;;;;;;4.97;100.00;93395.28;2089300;28;20029;-81
2022/03/14 02:07:36;;;;;;;0.40;0.30;;;;;;;4.82;100.00;93406.91;2096805;28;20028;-81
2022/03/14 02:08:37;;;;;;;0.30;0.30;;;;;;;4.98;100.00;93402.06;2105729;28;20038;-81
2022/03/14 02:09:38;;;;;;;1.27;0.40;;;;;;;5.01;100.00;93411.19;2097415;28;20020;-80
2022/03/14 02:12:00;;;;;;;0.30;0.30;;;;;;;4.94;100.00;93406.59;2138717;27;20173;-80
2022/03/14 02:13:08;;;;;;;0.30;0.30;;;;;;;4.91;100.00;93414.53;2121724;28;20081;-79
2022/03/14 02:14:09;;;;;;;1.60;0.40;;;;;;;4.95;100.00;93404.72;2122654;27;20708;-80
2022/03/14 02:15:10;;;;;;;0.20;0.20;;;;;;;4.99;100.00;93408.13;2121516;28;20020;-82
2022/03/14 02:16:11;;;;;;;0.80;0.20;;;;;;;4.84;100.00;93409.22;2121357;27;20020;-82
2022/03/14 02:17:15;;;;;;;0.20;0.20;;;;;;;5.00;100.00;93418.38;2121398;27;20441;-83
2022/03/14 02:18:17;;;;;;;0.30;0.30;;;;;;;5.07;100.00;93406.28;2121984;27;20094;-82
2022/03/14 02:19:20;;;;;;;0.20;0.20;;;;;;;4.98;100.00;93410.03;2113199;28;20365;-82
2022/03/14 02:20:21;;;;;;;0.30;0.30;;;;;;;4.93;100.00;93420.22;2105097;28;20039;-82
2022/03/14 02:21:22;;;;;;;0.32;0.32;;;;;;;4.75;100.00;93414.84;2112848;27;20027;-82
2022/03/14 02:22:23;;;;;;;0.20;0.20;;;;;;;4.71;100.00;93417.47;2129949;27;20051;-82
2022/03/14 02:23:24;;;;;;;0.25;0.25;;;;;;;4.75;100.00;93422.78;2129949;27;20030;-82
2022/03/14 02:24:28;;;;;;;0.30;0.30;;;;;;;4.63;100.00;93417.81;2112462;28;20803;-82
2022/03/14 02:25:29;;;;;;;0.30;0.30;;;;;;;4.49;100.00;93424.53;2113384;28;20028;-83
2022/03/14 02:26:30;;;;;;;0.30;0.20;;;;;;;4.48;100.00;93420.38;2121070;28;20081;-81
2022/03/14 02:27:31;;;;;;;0.30;0.30;;;;;;;4.63;100.00;93429.16;2112786;28;20036;-83
2022/03/14 02:28:32;;;;;;;0.82;0.30;;;;;;;4.65;100.00;93426.88;2104415;28;20067;-82
2022/03/14 02:29:33;;;;;;;0.20;0.20;;;;;;;4.75;100.00;93428.09;2104470;28;20051;-80
2022/03/14 02:30:34;;;;;;;0.30;0.30;;;;;;;4.68;100.00;93420.84;2112809;28;20074;-81
2022/03/14 02:31:39;;;;;;;0.85;0.35;;;;;;;4.68;100.00;93422.75;2112926;28;20031;-80
2022/03/14 02:32:41;;;;;;;0.63;0.43;;;;;;;4.69;100.00;93418.97;2121278;28;20023;-80
2022/03/14 02:33:42;;;;;;;0.30;0.30;;;;;;;4.70;100.00;93417.84;2112855;28;20115;-81
2022/03/14 02:34:43;;;;;;;0.38;0.38;;;;;;;4.67;100.00;93410.63;2103156;28;20016;-80
2022/03/14 02:35:49;;;;;;;0.30;0.30;;;;;;;4.91;100.00;93414.53;2104405;28;20048;-80
2022/03/14 02:36:50;;;;;;;0.40;0.40;;;;;;;4.71;100.00;93406.13;2105686;28;20067;-80
2022/03/14 02:37:51;;;;;;;0.20;0.20;;;;;;;4.70;100.00;93407.25;2112837;28;20393;-80
2022/03/14 02:38:59;;;;;;;0.20;0.20;;;;;;;4.67;100.00;93411.41;2112869;28;20027;-81
2022/03/14 02:40:00;;;;;;;0.20;0.20;;;;;;;4.69;100.00;93416.31;2113757;28;20026;-79
2022/03/14 02:41:01;;;;;;;0.20;0.20;;;;;;;4.67;100.00;93418.59;2112728;28;20502;-80
2022/03/14 02:42:03;;;;;;;0.28;0.28;;;;;;;4.58;100.00;93423.44;2104462;28;20024;-81
2022/03/14 02:43:05;;;;;;;0.20;0.20;;;;;;;4.41;100.00;93428.25;2096221;28;20086;-81
2022/03/14 02:44:07;;;;;;;0.20;0.20;;;;;;;4.43;100.00;93433.94;2104676;28;20498;-80
2022/03/14 02:45:09;;;;;;;0.30;0.30;;;;;;;4.50;100.00;93430.59;2104330;28;20020;-80
2022/03/14 02:46:10;;;;;;;0.20;0.20;;;;;;;4.38;100.00;93428.22;2096398;28;20058;-80
2022/03/14 02:47:12;;;;;;;0.20;0.20;;;;;;;4.54;100.00;93436.66;2102548;28;20123;-80
2022/03/14 02:48:13;;;;;;;0.52;0.20;;;;;;;4.64;100.00;93438.59;2112452;28;20031;-80
2022/03/14 02:49:14;;;;;;;0.30;0.30;;;;;;;4.68;100.00;93438.63;2112704;28;20016;-80
2022/03/14 02:50:15;;;;;;;0.20;0.20;;;;;;;4.48;100.00;93430.97;2104253;28;20465;-80
2022/03/14 02:51:16;;;;;;;0.20;0.20;;;;;;;4.71;100.00;93438.66;2104403;28;20036;-81
2022/03/14 02:52:17;;;;;;;0.20;0.20;;;;;;;4.59;100.00;93432.91;2112703;27;20039;-81
2022/03/14 02:53:19;;;;;;;0.20;0.20;;;;;;;4.66;100.00;93427.66;2112790;28;20031;-80
2022/03/14 02:54:20;;;;;;;0.20;0.20;;;;;;;4.48;100.00;93428.31;2104528;28;20024;-80
2022/03/14 02:55:23;;;;;;;0.20;0.20;;;;;;;4.46;100.00;93430.56;2104060;28;20017;-80
2022/03/14 02:56:24;;;;;;;0.28;0.28;;;;;;;4.61;100.00;93422.69;2112801;28;20030;-80
2022/03/14 02:57:25;;;;;;;0.20;0.20;;;;;;;4.46;100.00;93406.72;2112528;28;20023;-80
2022/03/14 02:58:28;;;;;;;0.10;0.10;;;;;;;4.34;100.00;93411.56;2112452;28;20027;-80
2022/03/14 02:59:29;;;;;;;0.10;0.10;;;;;;;4.27;100.00;93421.00;2104485;28;20489;-80
2022/03/14 03:00:30;;;;;;;0.30;0.30;;;;;;;4.23;100.00;93430.78;2103753;28;20027;-80
2022/03/14 03:01:31;;;;;;;0.20;0.20;;;;;;;4.19;100.00;93439.81;2104066;28;20556;-80
2022/03/14 03:02:35;;;;;;;0.25;0.25;;;;;;;4.16;100.00;93438.66;2105205;27;20032;-80
2022/03/14 03:03:36;;;;;;;0.10;0.10;;;;;;;4.14;100.00;93448.84;2120632;27;20032;-81
2022/03/14 03:04:37;;;;;;;0.20;0.20;;;;;;;4.23;100.00;93438.72;2119573;28;20080;-80
2022/03/14 03:05:43;;;;;;;0.20;0.20;;;;;;;4.38;100.00;93444.88;2097231;28;20093;-81
2022/03/14 03:06:45;;;;;;;0.13;0.13;;;;;;;4.15;100.00;93454.91;2100460;28;20119;-81
2022/03/14 03:07:48;;;;;;;0.20;0.20;;;;;;;4.16;100.00;93462.47;2115087;28;20047;-81
2022/03/14 03:08:50;;;;;;;0.20;0.20;;;;;;;4.47;100.00;93463.81;2120879;28;20027;-81
2022/03/14 03:09:51;;;;;;;0.20;0.20;;;;;;;4.55;100.00;93469.94;2112449;28;20106;-81
2022/03/14 03:10:55;;;;;;;0.25;0.20;;;;;;;4.40;100.00;93474.38;2095222;28;20017;-81
2022/03/14 03:11:56;;;;;;;0.20;0.20;;;;;;;4.46;100.00;93474.78;2104572;28;20405;-81
2022/03/14 03:12:57;;;;;;;0.20;0.20;;;;;;;4.40;100.00;93468.34;2104002;28;20024;-80
2022/03/14 03:14:00;;;;;;;0.22;0.22;;;;;;;4.25;100.00;93467.44;2104164;28;20032;-81
2022/03/14 03:15:01;;;;;;;0.45;0.45;;;;;;;4.26;100.00;93480.31;2100858;28;20067;-81
2022/03/14 03:16:04;;;;;;;0.15;0.15;;;;;;;4.25;100.00;93485.97;2096109;28;20071;-81
2022/03/14 03:17:06;;;;;;;0.20;0.20;;;;;;;4.26;100.00;93500.75;2104179;28;20024;-81
2022/03/14 03:18:08;;;;;;;0.15;0.15;;;;;;;4.17;100.00;93494.97;2104262;28;20372;-81
2022/03/14 03:19:09;;;;;;;0.30;0.22;;;;;;;4.24;100.00;93495.03;2104503;28;20052;-81
2022/03/14 03:20:12;;;;;;;0.20;0.20;;;;;;;4.23;100.00;93496.16;2112352;28;20027;-81
2022/03/14 03:21:14;;;;;;;0.25;0.22;;;;;;;4.27;100.00;93489.03;2112208;28;20036;-81
2022/03/14 03:22:15;;;;;;;0.28;0.28;;;;;;;4.21;100.00;93496.50;2104027;28;20624;-80
2022/03/14 03:23:16;;;;;;;0.38;0.30;;;;;;;4.44;100.00;93506.16;2098815;28;20107;-80
2022/03/14 03:24:17;;;;;;;0.20;0.20;;;;;;;4.61;100.00;93505.53;2098124;28;20050;-81
2022/03/14 03:25:19;;;;;;;0.20;0.20;;;;;;;4.54;100.00;93498.31;2098363;28;20032;-80
2022/03/14 03:26:21;;;;;;;0.20;0.20;;;;;;;4.58;100.00;93503.63;2106766;28;20430;-81
2022/03/14 03:27:23;;;;;;;0.13;0.13;;;;;;;4.45;100.00;93499.75;2098515;28;20547;-81
2022/03/14 03:28:23;;;;;;;0.20;0.20;;;;;;;4.31;100.00;93489.81;2090622;28;20060;-81
2022/03/14 03:29:25;;;;;;;0.20;0.20;;;;;;;4.31;100.00;93495.09;2090157;28;20779;-81
2022/03/14 03:30:26;;;;;;;0.20;0.20;;;;;;;4.25;100.00;93493.91;2106777;28;20031;-80
2022/03/14 03:31:28;;;;;;;0.10;0.10;;;;;;;4.17;100.00;93501.03;2115104;28;20024;-80
2022/03/14 03:32:29;;;;;;;0.10;0.10;;;;;;;4.04;100.00;93503.19;2098599;28;20059;-80
2022/03/14 03:33:30;;;;;;;0.20;0.20;;;;;;;4.06;100.00;93510.00;2098459;28;20021;-80
2022/03/14 03:34:31;;;;;;;1.58;0.93;;;;;;;4.24;100.00;93519.59;2106741;28;20020;-80
2022/03/14 03:35:32;;;;;;;0.20;0.20;;;;;;;4.32;100.00;93523.09;2098334;28;20389;-81
2022/03/14 03:36:33;;;;;;;0.20;0.20;;;;;;;4.12;100.00;93516.47;2098214;28;20496;-80
2022/03/14 03:37:34;;;;;;;0.20;0.20;;;;;;;4.24;100.00;93532.09;2098181;28;20024;-80
2022/03/14 03:38:35;;;;;;;0.20;0.20;;;;;;;4.32;100.00;93535.56;2100016;28;20175;-80
2022/03/14 03:39:36;;;;;;;0.20;0.20;;;;;;;4.30;100.00;93535.91;2098344;28;20034;-80
2022/03/14 03:40:37;;;;;;;0.32;0.20;;;;;;;4.16;100.00;93543.72;2098329;28;20043;-81
2022/03/14 03:41:39;;;;;;;3.42;0.30;;;;;;;4.10;100.00;93545.19;2098049;28;20020;-80
2022/03/14 03:42:39;;;;;;;0.20;0.20;;;;;;;4.05;100.00;93543.63;2089984;28;20052;-81
2022/03/14 03:43:41;;;;;;;0.50;0.20;;;;;;;3.98;100.00;93546.19;2081847;28;20032;-80
2022/03/14 03:44:47;;;;;;;0.20;0.20;;;;;;;4.09;100.00;93548.97;2092718;28;20025;-80
2022/03/14 03:45:55;;;;;;;0.30;0.20;;;;;;;4.06;100.00;93557.63;2107433;28;20024;-80
2022/03/14 03:47:03;;;;;;;0.20;0.20;;;;;;;4.01;100.00;93564.75;2099169;28;20453;-81
2022/03/14 03:48:05;;;;;;;0.20;0.20;;;;;;;3.95;100.00;93566.22;2099725;28;20504;-80
2022/03/14 03:49:06;;;;;;;0.20;0.20;;;;;;;4.12;100.00;93556.16;2106518;28;20020;-81
2022/03/14 03:50:07;;;;;;;0.17;0.17;;;;;;;4.26;100.00;93564.25;2098327;28;20078;-79
2022/03/14 03:51:08;;;;;;;0.35;0.20;;;;;;;4.38;100.00;93556.00;2097921;28;20111;-80
2022/03/14 03:52:09;;;;;;;1.02;0.20;;;;;;;4.33;100.00;93564.28;2106311;28;20020;-81
2022/03/14 03:53:11;;;;;;;0.20;0.20;;;;;;;4.46;100.00;93564.78;2106666;28;20023;-81
2022/03/14 03:54:12;;;;;;;0.20;0.20;;;;;;;4.20;100.00;93560.38;2114900;28;20093;-81
2022/03/14 03:55:13;;;;;;;0.20;0.20;;;;;;;4.19;100.00;93562.28;2106289;28;20032;-80
2022/03/14 03:56:14;;;;;;;0.30;0.30;;;;;;;4.20;100.00;93560.38;2098046;28;20040;-80
2022/03/14 03:57:15;;;;;;;0.30;0.30;;;;;;;4.20;100.00;93557.75;2106581;28;20057;-80
2022/03/14 03:58:16;;;;;;;0.20;0.20;;;;;;;4.15;100.00;93558.06;2098188;28;20029;-80
2022/03/14 03:59:17;;;;;;;0.20;0.20;;;;;;;4.03;100.00;93557.19;2105519;28;20028;-79
2022/03/14 04:00:19;;;;;;;0.20;0.20;;;;;;;3.94;100.00;93555.97;2105814;28;20393;-78
2022/03/14 04:01:23;;;;;;;0.20;0.20;;;;;;;4.11;100.00;93557.28;2098371;28;20405;-81
2022/03/14 04:02:24;;;;;;;0.20;0.20;;;;;;;4.12;100.00;93564.84;2106784;28;20034;-81
2022/03/14 04:03:25;;;;;;;0.20;0.20;;;;;;;3.91;100.00;93570.69;2098233;28;20032;-79
2022/03/14 04:04:26;;;;;;;0.20;0.20;;;;;;;3.73;100.00;93575.00;2098147;28;20036;-79
2022/03/14 04:05:29;;;;;;;0.40;0.28;;;;;;;3.69;100.00;93572.34;2106304;28;20055;-81
2022/03/14 04:06:30;;;;;;;0.20;0.20;;;;;;;3.67;100.00;93574.56;2106285;28;20024;-81
2022/03/14 04:07:34;;;;;;;0.20;0.20;;;;;;;3.70;100.00;93583.69;2106192;28;20023;-79
2022/03/14 04:08:35;;;;;;;0.20;0.20;;;;;;;3.79;100.00;93579.63;2098500;28;20374;-80
2022/03/14 04:09:36;;;;;;;0.30;0.30;;;;;;;3.72;100.00;93582.19;2098023;28;20056;-80
2022/03/14 04:10:41;;;;;;;0.20;0.20;;;;;;;3.68;100.00;93581.38;2114859;28;20093;-80
2022/03/14 04:11:42;;;;;;;0.30;0.30;;;;;;;3.63;100.00;93586.22;2114364;28;20077;-81
2022/03/14 04:12:44;;;;;;;0.20;0.20;;;;;;;3.64;100.00;93588.50;2105915;28;20020;-78
2022/03/14 04:13:45;;;;;;;0.20;0.20;;;;;;;3.62;100.00;93597.94;2098078;28;20020;-80
2022/03/14 04:14:47;;;;;;;0.60;0.30;;;;;;;3.58;100.00;93591.84;2098119;28;20477;-79
2022/03/14 04:15:51;;;;;;;0.20;0.20;;;;;;;4.01;100.00;93593.84;2106605;28;20123;-80
2022/03/14 04:16:53;;;;;;;0.20;0.20;;;;;;;3.93;100.00;93597.53;2098032;28;20107;-80
2022/03/14 04:17:57;;;;;;;0.30;0.30;;;;;;;3.84;100.00;93596.28;2089755;28;20453;-79
2022/03/14 04:18:58;;;;;;;0.20;0.20;;;;;;;3.71;100.00;93604.47;2098371;28;20051;-80
2022/03/14 04:20:00;;;;;;;0.20;0.20;;;;;;;3.61;100.00;93609.63;2098096;28;20021;-81
2022/03/14 04:21:01;;;;;;;0.25;0.22;;;;;;;3.51;100.00;93608.34;2098400;28;20036;-81
2022/03/14 04:22:03;;;;;;;0.20;0.20;;;;;;;3.68;100.00;93609.69;2106262;28;20416;-80
2022/03/14 04:23:04;;;;;;;0.20;0.20;;;;;;;3.59;100.00;93609.97;2098139;28;20036;-80
2022/03/14 04:24:06;;;;;;;0.32;0.30;;;;;;;3.47;100.00;93621.53;2097570;28;20120;-81
2022/03/14 04:25:10;;;;;;;0.20;0.20;;;;;;;3.35;100.00;93626.28;2098186;28;20020;-79
2022/03/14 04:26:11;;;;;;;3.72;0.30;;;;;;;3.35;100.00;93623.63;2090108;28;20029;-80
2022/03/14 04:27:12;;;;;;;0.85;0.30;;;;;;;3.38;100.00;93622.91;2097991;28;20031;-79
2022/03/14 04:28:14;;;;;;;0.30;0.30;;;;;;;3.35;100.00;93629.66;2089596;28;20059;-79
2022/03/14 04:29:15;;;;;;;0.25;0.25;;;;;;;3.28;100.00;93638.25;2081791;28;20022;-80
2022/03/14 04:30:16;;;;;;;0.20;0.20;;;;;;;3.27;100.00;93636.72;2101165;28;20090;-79
2022/03/14 04:31:17;;;;;;;0.30;0.30;;;;;;;3.66;100.00;93627.81;2106132;28;20202;-79
2022/03/14 04:32:18;;;;;;;0.20;0.20;;;;;;;3.45;100.00;93629.03;2089670;28;20115;-80
2022/03/14 04:33:19;;;;;;;0.20;0.20;;;;;;;3.44;100.00;93626.78;2089634;28;20025;-80
2022/03/14 04:34:21;;;;;;;0.20;0.20;;;;;;;3.39;100.00;93624.44;2097662;28;20473;-80
2022/03/14 04:35:22;;;;;;;0.30;0.30;;;;;;;3.38;100.00;93628.19;2113904;28;20038;-80
2022/03/14 04:36:23;;;;;;;0.20;0.20;;;;;;;3.27;100.00;93628.03;2105697;28;20031;-80
2022/03/14 04:37:24;;;;;;;0.47;0.30;;;;;;;3.18;100.00;93630.19;2089647;28;20051;-81
2022/03/14 04:38:26;;;;;;;0.20;0.20;;;;;;;3.16;100.00;93625.28;2089644;28;20028;-80
2022/03/14 04:39:27;;;;;;;0.20;0.20;;;;;;;3.19;100.00;93640.38;2082204;28;20513;-80
2022/03/14 04:40:28;;;;;;;0.30;0.30;;;;;;;3.23;100.00;93638.56;2097803;28;20024;-81
2022/03/14 04:41:34;;;;;;;0.40;0.20;;;;;;;3.15;100.00;93636.94;2097662;28;20016;-80
2022/03/14 04:42:35;;;;;;;0.20;0.20;;;;;;;3.17;100.00;93637.34;2098259;28;20083;-80
2022/03/14 04:43:35;;;;;;;0.30;0.30;;;;;;;3.47;100.00;93640.03;2089540;28;20079;-81
2022/03/14 04:44:37;;;;;;;0.55;0.28;;;;;;;3.32;100.00;93645.47;2089612;28;20079;-80
2022/03/14 04:45:39;;;;;;;0.20;0.20;;;;;;;3.34;100.00;93645.88;2097905;28;20016;-80
2022/03/14 04:46:40;;;;;;;0.73;0.38;;;;;;;3.25;100.00;93638.22;2089610;28;20021;-80
2022/03/14 04:47:41;;;;;;;0.20;0.20;;;;;;;3.15;100.00;93642.22;2097938;28;20028;-80
2022/03/14 04:48:42;;;;;;;0.70;0.30;;;;;;;3.09;100.00;93642.88;2097179;28;20032;-81
2022/03/14 04:49:43;;;;;;;0.20;0.20;;;;;;;3.05;100.00;93642.81;2096301;28;20028;-80
2022/03/14 04:50:45;;;;;;;0.20;0.20;;;;;;;3.10;100.00;93644.41;2097763;28;20047;-80
2022/03/14 04:51:50;;;;;;;0.10;0.10;;;;;;;3.08;100.00;93642.13;2097907;28;20186;-80
2022/03/14 04:52:52;;;;;;;0.20;0.20;;;;;;;2.98;100.00;93640.81;2106766;28;20016;-81